KDNL/DNL METAR and TAF weather

Enter ICAO airport designator
Station Type Date Time Source
KDNL METAR 2018/09/21 22:53 UTC NOAA

KDNL 212253Z AUTO 13006KT 10SM SCT050 BKN070 31/21 A3009 RMK AO2 SLP182 T03110206


Station Type Date Time Source
KDNL Decoded METAR 2018/09/21 22:53 UTC NOAA

AUGUSTA DANIEL FIELD, GA, United States (KDNL) 33-28N 82-02W 130M
Sep 21, 2018 - 06:53 PM EDT / 2018.09.21 2253 UTC
Wind: from the SE (130 degrees) at 7 MPH (6 KT):0
Visibility: 10 mile(s):0
Sky conditions: mostly cloudy
Temperature: 88.0 F (31.1 C)
Dew Point: 69.1 F (20.6 C)
Relative Humidity: 53%
Pressure (altimeter): 30.09 in. Hg (1018 hPa)
ob: KDNL 212253Z AUTO 13006KT 10SM SCT050 BKN070 31/21 A3009 RMK AO2 SLP182 T03110206
cycle: 23

Station Type Date Time Source
KDNL TAF 2018/09/21 20:16 UTC NOAA

TAF
AMD KDNL 212014Z 2120/2218 13006KT P6SM SCT040
FM212300 VRB03KT P6SM SKC
FM221000 00000KT 6SM BR SCT012
FM221300 10005KT P6SM SCT040


Example: see airport list